NATURA VA

 INFORMACIÓN METAR y TAF
METAR FOR LECH
ADDS - METARS form results

(2323 UTC 17 June 2019)
Data provider http://aviationweather.gov/metar/data/
 
METAR text: LECH 172300Z AUTO 20004KT 9999 NCD 19/10 Q1017
Conditions at: LECH (CASTELLON , ES) observed 2300 UTC 17 June 2019
Temperature: 19.0°C (66°F)
Dewpoint: 10.0°C (50°F) [RH = 56%]
Pressure (altimeter): 30.03 inches Hg (1017.0 mb)
Winds: from the SSW (200 degrees) at 5 MPH (4 knots; 2.1 m/s)
Visibility: 6 or more miles (10+ km)
Ceiling: at least 12,000 feet AGL
Clouds: sky clear below 12,000 feet AGL
Weather: no significant weather observed at this time

METAR text: LECH 172230Z AUTO VRB02KT 9999 NCD 19/09 Q1017
Conditions at: LECH (CASTELLON , ES) observed 2230 UTC 17 June 2019
Temperature: 19.0°C (66°F)
Dewpoint: 9.0°C (48°F) [RH = 52%]
Pressure (altimeter): 30.03 inches Hg (1017.0 mb)
Winds: variable direction winds at 2 MPH (2 knots; 1.0 m/s)
Visibility: 6 or more miles (10+ km)
Ceiling: at least 12,000 feet AGL
Clouds: sky clear below 12,000 feet AGL
Weather: no significant weather observed at this time

 MAPA DE AEROPUERTO

 INFORMACIÓN DE PISTA

 FRECUANCIAS DEL AEROPUERTO
Tipo GND Nombre GND Frecuencia 121.82 MHZ
Tipo TWR Nombre TWR Frecuencia 120.67 MHZ
Tipo APP Nombre APP Frecuencia 120.1 MHZ

 RADIO AYUDAS DEL AEROPUERTO



Powered by Virtual Airlines Manager [v2.6.2]